createdAt,value
2023-05-06T00:38:29.973Z,2.04
2023-05-06T00:43:39.769Z,1.62
2023-05-06T00:48:55.371Z,1.63
2023-05-06T00:54:11.771Z,1.46
2023-05-06T00:59:28.808Z,2.36
2023-05-06T01:04:44.408Z,1.63
2023-05-06T01:10:02.026Z,1.97
2023-05-06T01:15:17.334Z,1.92
2023-05-06T01:20:35.442Z,1.77
2023-05-06T01:25:51.288Z,1.62
2023-05-06T01:31:08.176Z,1.85
2023-05-06T01:36:23.204Z,1.57
2023-05-06T01:41:40.886Z,1.57
2023-05-06T01:46:57.527Z,1.6
2023-05-06T01:52:13.028Z,1.93
2023-05-06T01:57:29.151Z,1.51
2023-05-06T02:02:44.919Z,1.53
2023-05-06T02:08:01.096Z,1.62
2023-05-06T02:13:17.879Z,1.57
2023-05-06T02:18:34.686Z,1.8
2023-05-06T02:23:51.213Z,1.44
2023-05-06T02:29:06.507Z,1.76
2023-05-06T02:34:23.193Z,1.88
2023-05-06T02:39:39.328Z,2.26
2023-05-06T02:44:55.264Z,2.43
2023-05-06T02:50:12.958Z,1.62
2023-05-06T02:55:28.856Z,1.79
2023-05-06T03:00:45.207Z,2.03
2023-05-06T03:06:01.276Z,1.61
2023-05-06T03:11:17.009Z,1.31
2023-05-06T03:16:39.497Z,1.63
2023-05-06T03:21:55.283Z,1.79
2023-05-06T03:27:11.376Z,1.55
2023-05-06T03:32:29.228Z,1.59
2023-05-06T03:37:45.091Z,1.81
2023-05-06T03:43:04.111Z,1.56
2023-05-06T04:25:24.813Z,1.81
2023-05-06T04:30:34.234Z,1.59
2023-05-06T04:35:50.780Z,1.72
2023-05-06T04:41:05.105Z,1.55
2023-05-06T04:46:21.519Z,1.45
2023-05-06T04:51:37.252Z,1.23
2023-05-06T04:56:54.602Z,1.67
2023-05-06T05:02:12.840Z,1.37
2023-05-06T05:07:30.103Z,1.51
2023-05-06T05:12:45.905Z,1.69
2023-05-06T05:18:03.456Z,1.4
2023-05-06T05:23:18.611Z,1.61
2023-05-06T05:28:36.172Z,1.69
2023-05-06T05:33:53.018Z,1.42
2023-05-06T05:39:09.603Z,1.48
2023-05-06T05:44:26.186Z,1.46
2023-05-06T05:49:43.293Z,1.61
2023-05-06T05:54:59.219Z,1.53
2023-05-06T06:00:17.104Z,1.63
2023-05-06T06:05:32.434Z,1.51
2023-05-06T06:10:49.257Z,1.61
2023-05-06T06:16:06.656Z,1.3
2023-05-06T06:21:22.809Z,1.45
2023-05-06T06:26:39.576Z,1.44
2023-05-06T06:31:56.276Z,1.42
2023-05-06T06:37:11.932Z,1.47
2023-05-06T06:42:27.896Z,1.45
2023-05-06T06:47:44.822Z,1.36
2023-05-06T06:53:00.510Z,1.4
2023-05-06T06:58:17.621Z,1.3
2023-05-06T07:03:34.701Z,1.22
2023-05-06T07:08:50.161Z,1.23
2023-05-06T07:14:06.707Z,1.13
2023-05-06T07:19:23.738Z,1.06
2023-05-06T07:24:40.023Z,1.17
2023-05-06T08:12:12.473Z,1.19
2023-05-06T08:17:22.059Z,1.15
2023-05-06T08:22:38.317Z,1.15
2023-05-06T08:27:54.058Z,1.05
2023-05-06T08:33:10.311Z,1.11
2023-05-06T08:38:26.802Z,1.09
2023-05-06T08:43:43.690Z,1.05
2023-05-06T08:48:58.774Z,0.95
2023-05-06T08:54:16.565Z,1.14
2023-05-06T08:59:33.338Z,1.14
2023-05-06T09:04:49.506Z,1.18
2023-05-06T09:10:06.984Z,1.24
2023-05-06T09:15:22.888Z,1.1
2023-05-06T09:20:39.173Z,0.97
2023-05-06T09:25:54.571Z,0.98
2023-05-06T09:31:10.240Z,0.87
2023-05-06T09:36:27.210Z,0.91
2023-05-06T09:41:44.705Z,0.91
2023-05-06T09:47:00.441Z,0.8
2023-05-06T09:52:18.915Z,0.82
2023-05-06T09:57:35.208Z,0.82
2023-05-06T10:02:53.315Z,0.77
2023-05-06T10:08:09.429Z,0.85
2023-05-06T10:13:25.661Z,0.86
2023-05-06T10:18:43.962Z,0.82
2023-05-06T10:24:00.973Z,0.82
2023-05-06T10:29:18.695Z,0.83
2023-05-06T10:34:34.121Z,0.84
2023-05-06T10:39:50.629Z,0.83
2023-05-06T10:45:07.127Z,0.8
2023-05-06T10:50:25.739Z,0.82
2023-05-06T10:55:42.088Z,0.71
2023-05-06T11:00:57.768Z,0.82
2023-05-06T11:06:14.639Z,0.78
2023-05-06T11:11:30.009Z,0.82
2023-05-06T11:53:52.272Z,0.83
2023-05-06T11:59:02.208Z,0.77
2023-05-06T12:04:18.469Z,0.72
2023-05-06T12:09:33.014Z,0.77
2023-05-06T12:14:49.426Z,0.75
2023-05-06T12:20:05.351Z,0.79
2023-05-06T13:02:22.170Z,0.89
2023-05-06T13:07:31.456Z,0.84
2023-05-06T13:12:48.415Z,0.82
2023-05-06T13:18:04.385Z,0.86
2023-05-06T13:23:21.287Z,0.78
2023-05-06T13:28:38.410Z,0.83
2023-05-06T13:33:55.999Z,0.8
2023-05-06T13:39:12.139Z,0.8
2023-05-06T13:44:32.274Z,0.82
2023-05-06T13:49:48.783Z,0.82
2023-05-06T13:55:05.633Z,0.84
2023-05-06T14:00:21.450Z,0.86
2023-05-06T14:05:37.340Z,0.84
2023-05-06T14:10:54.421Z,0.87
2023-05-06T14:16:11.644Z,0.9
2023-05-06T14:21:29.341Z,0.81
2023-05-06T14:26:44.606Z,0.82
2023-05-06T14:32:01.945Z,0.83
2023-05-06T14:37:18.304Z,0.84
2023-05-06T14:42:35.373Z,0.9
2023-05-06T14:47:52.525Z,0.91
2023-05-06T14:53:11.337Z,0.91
2023-05-06T14:58:28.199Z,0.92
2023-05-06T15:03:43.814Z,0.92
2023-05-06T15:08:59.822Z,0.88
2023-05-06T15:14:16.600Z,0.93
2023-05-06T15:19:34.153Z,0.86
2023-05-06T15:24:51.125Z,0.86
2023-05-06T15:30:08.223Z,0.89
2023-05-06T15:35:24.620Z,0.9
2023-05-06T15:40:40.796Z,0.87
2023-05-06T15:46:00.906Z,0.88
2023-05-06T15:51:14.652Z,0.97
2023-05-06T15:56:41.947Z,0.87
2023-05-06T16:02:28.137Z,0.95
2023-05-06T16:07:03.187Z,1.03
2023-05-06T16:54:35.223Z,0.89
2023-05-06T16:59:45.257Z,0.9
2023-05-06T17:05:02.309Z,0.97
2023-05-06T17:10:18.227Z,0.95
2023-05-06T17:15:35.978Z,0.91
2023-05-06T17:20:57.588Z,0.81
2023-05-06T17:26:10.852Z,0.89
2023-05-06T17:31:26.849Z,0.87
2023-05-06T17:36:44.386Z,0.91
2023-05-06T17:42:00.788Z,0.93
2023-05-06T17:47:17.461Z,0.89
2023-05-06T17:52:34.553Z,0.89
2023-05-06T17:57:51.020Z,0.83
2023-05-06T18:03:06.692Z,0.9
2023-05-06T18:08:21.160Z,0.91
2023-05-06T18:13:38.103Z,0.98
2023-05-06T18:18:53.924Z,1.31
2023-05-06T18:24:17.216Z,1.52
2023-05-06T18:29:26.702Z,1.37
2023-05-06T18:34:43.557Z,1.23
2023-05-06T18:39:59.989Z,1.22
2023-05-06T18:45:15.440Z,1.32
2023-05-06T18:50:31.262Z,1.34
2023-05-06T18:55:46.868Z,1.31
2023-05-06T19:01:02.831Z,1.11
2023-05-06T19:06:18.151Z,1.08
2023-05-06T19:11:36.532Z,1.04
2023-05-06T19:16:52.258Z,1.07
2023-05-06T19:22:07.628Z,0.93
2023-05-06T19:27:23.623Z,0.99
2023-05-06T19:32:41.622Z,1
2023-05-06T19:37:57.498Z,1.06
2023-05-06T19:43:12.665Z,1.13
2023-05-06T19:48:29.441Z,1.16
2023-05-06T19:53:46.234Z,1.06
2023-05-06T19:59:02.142Z,1.04
2023-05-06T20:46:36.425Z,1.04
2023-05-06T20:51:46.155Z,1
2023-05-06T20:57:03.514Z,1.05
2023-05-06T21:02:20.223Z,0.9
2023-05-06T21:07:36.406Z,1.05
2023-05-06T21:12:53.037Z,1.02
2023-05-06T21:18:10.916Z,1.05
2023-05-06T21:23:26.105Z,1.03
2023-05-06T21:28:42.834Z,1.03
2023-05-06T21:34:00.361Z,1.03
2023-05-06T21:39:16.838Z,1.06
2023-05-06T21:44:32.955Z,1.04
2023-05-06T21:49:49.013Z,0.99
2023-05-06T21:55:04.716Z,0.97
2023-05-06T22:00:21.005Z,1.01
2023-05-06T22:05:38.376Z,1.03
2023-05-06T22:10:55.237Z,0.97
2023-05-06T22:16:12.699Z,1.04
2023-05-06T22:21:29.105Z,1.01
2023-05-06T22:26:47.805Z,1.04
2023-05-06T22:32:04.118Z,1.09
2023-05-06T22:37:20.280Z,1.07
2023-05-06T22:42:36.301Z,0.99
2023-05-06T22:47:53.554Z,1.04
2023-05-06T22:53:16.030Z,1.12
2023-05-06T22:58:24.303Z,1.16
2023-05-06T23:03:40.752Z,1.19
2023-05-06T23:08:56.167Z,1.28
2023-05-06T23:14:12.053Z,1.32
2023-05-06T23:19:30.703Z,1.4
2023-05-06T23:24:48.646Z,1.31
2023-05-06T23:30:05.798Z,1.34
2023-05-06T23:35:23.262Z,1.43
2023-05-06T23:40:40.643Z,1.36
2023-05-06T23:45:57.041Z,2.01
